Vernon, Louisiana
Current Conditions -  °F | °C
As of 8:35 PM on Friday 28 Nov 2014 (Local Time) from KRSN Reporting Station
Clear Clear  
Wind Chill: 51°   Ceiling: Unl
Heat Index: 51°   Visibility: 10mi
Dew Point: 43°   Wind: 8mph
Humidity: 73%   Direction: 170°S
Pressure: 30.19"   Gusts: NA
Location:  32.5075°N, 92.6828°W
Report Text: KRSN 290235Z AUTO 17007KT 10SM CLR 11/06 A3019 RMK AO2 T01050059
Loading
Personal Weather Stations






























Interactive Weather Map New forecast layout! Learn more

10-Day Weather Forecast

Advertisements
Track Severe Weather on mobile